sensor_id;sensor_type;location;lat;lon;timestamp;P1;durP1;ratioP1;P2;durP2;ratioP2
77733;SDS011;66902;41.720;44.796;2023-05-24T05:22:00;18.60;;;4.80;;
77733;SDS011;66902;41.720;44.796;2023-05-24T05:24:31;15.80;;;4.50;;
77733;SDS011;66902;41.720;44.796;2023-05-24T05:27:02;19.20;;;5.30;;
77733;SDS011;66902;41.720;44.796;2023-05-24T05:29:33;13.10;;;3.60;;
77733;SDS011;66902;41.720;44.796;2023-05-24T05:32:05;9.80;;;4.50;;
77733;SDS011;66902;41.720;44.796;2023-05-24T05:34:37;15.20;;;6.10;;
77733;SDS011;66902;41.720;44.796;2023-05-24T05:37:09;21.00;;;5.20;;
77733;SDS011;66902;41.720;44.796;2023-05-24T05:39:40;17.60;;;4.40;;
77733;SDS011;66902;41.720;44.796;2023-05-24T05:42:11;12.40;;;3.40;;
77733;SDS011;66902;41.720;44.796;2023-05-24T05:44:43;12.30;;;3.60;;
77733;SDS011;66902;41.720;44.796;2023-05-24T05:47:14;15.50;;;7.30;;
77733;SDS011;66902;41.720;44.796;2023-05-24T05:49:46;18.70;;;11.60;;
77733;SDS011;66902;41.720;44.796;2023-05-24T05:52:17;12.10;;;3.10;;
77733;SDS011;66902;41.720;44.796;2023-05-24T05:54:48;13.80;;;5.70;;
77733;SDS011;66902;41.720;44.796;2023-05-24T05:57:20;11.50;;;3.50;;
77733;SDS011;66902;41.720;44.796;2023-05-24T05:59:52;13.10;;;3.50;;
77733;SDS011;66902;41.720;44.796;2023-05-24T06:02:23;11.20;;;3.40;;
77733;SDS011;66902;41.720;44.796;2023-05-24T06:04:55;13.60;;;3.90;;
77733;SDS011;66902;41.720;44.796;2023-05-24T06:07:26;9.80;;;3.40;;
77733;SDS011;66902;41.720;44.796;2023-05-24T06:09:58;13.10;;;3.50;;
77733;SDS011;66902;41.720;44.796;2023-05-24T06:12:29;8.90;;;2.30;;
77733;SDS011;66902;41.720;44.796;2023-05-24T06:15:01;14.80;;;5.30;;
77733;SDS011;66902;41.720;44.796;2023-05-24T06:17:34;17.70;;;3.70;;
77733;SDS011;66902;41.720;44.796;2023-05-24T06:20:07;9.40;;;3.50;;
77733;SDS011;66902;41.720;44.796;2023-05-24T06:22:43;11.20;;;3.30;;
77733;SDS011;66902;41.720;44.796;2023-05-24T06:25:16;11.70;;;3.50;;
77733;SDS011;66902;41.720;44.796;2023-05-24T06:27:48;12.60;;;4.20;;
77733;SDS011;66902;41.720;44.796;2023-05-24T06:30:20;13.60;;;3.70;;
77733;SDS011;66902;41.720;44.796;2023-05-24T06:32:52;13.00;;;4.20;;
77733;SDS011;66902;41.720;44.796;2023-05-24T06:35:24;7.60;;;3.50;;
77733;SDS011;66902;41.720;44.796;2023-05-24T06:37:56;9.40;;;3.70;;
77733;SDS011;66902;41.720;44.796;2023-05-24T06:40:30;12.50;;;3.90;;
77733;SDS011;66902;41.720;44.796;2023-05-24T06:43:02;14.30;;;3.90;;
77733;SDS011;66902;41.720;44.796;2023-05-24T06:45:35;11.50;;;4.50;;
77733;SDS011;66902;41.720;44.796;2023-05-24T06:48:06;19.20;;;4.40;;
77733;SDS011;66902;41.720;44.796;2023-05-24T06:50:38;11.70;;;3.50;;
77733;SDS011;66902;41.720;44.796;2023-05-24T06:53:10;20.10;;;3.70;;
77733;SDS011;66902;41.720;44.796;2023-05-24T06:55:42;15.30;;;4.60;;
77733;SDS011;66902;41.720;44.796;2023-05-24T06:58:13;12.90;;;4.30;;
77733;SDS011;66902;41.720;44.796;2023-05-24T07:00:45;10.30;;;3.90;;
77733;SDS011;66902;41.720;44.796;2023-05-24T07:03:17;13.10;;;4.10;;
77733;SDS011;66902;41.720;44.796;2023-05-24T07:05:48;16.80;;;4.90;;
77733;SDS011;66902;41.720;44.796;2023-05-24T07:08:21;7.80;;;3.40;;
77733;SDS011;66902;41.720;44.796;2023-05-24T07:10:52;12.40;;;3.10;;
77733;SDS011;66902;41.720;44.796;2023-05-24T07:13:24;13.80;;;4.40;;
77733;SDS011;66902;41.720;44.796;2023-05-24T07:15:56;10.90;;;3.70;;
77733;SDS011;66902;41.720;44.796;2023-05-24T07:18:28;8.20;;;4.00;;
77733;SDS011;66902;41.720;44.796;2023-05-24T07:20:59;15.60;;;5.10;;
77733;SDS011;66902;41.720;44.796;2023-05-24T07:23:29;14.40;;;3.80;;
77733;SDS011;66902;41.720;44.796;2023-05-24T07:26:00;12.20;;;4.90;;
77733;SDS011;66902;41.720;44.796;2023-05-24T07:28:31;16.00;;;5.30;;
77733;SDS011;66902;41.720;44.796;2023-05-24T07:31:04;14.70;;;5.40;;
77733;SDS011;66902;41.720;44.796;2023-05-24T07:33:37;14.40;;;5.90;;
77733;SDS011;66902;41.720;44.796;2023-05-24T07:36:07;16.10;;;6.20;;
77733;SDS011;66902;41.720;44.796;2023-05-24T07:38:38;19.60;;;5.50;;
77733;SDS011;66902;41.720;44.796;2023-05-24T07:41:08;21.20;;;4.60;;
77733;SDS011;66902;41.720;44.796;2023-05-24T07:43:41;16.10;;;5.40;;
77733;SDS011;66902;41.720;44.796;2023-05-24T07:46:11;23.70;;;6.10;;
77733;SDS011;66902;41.720;44.796;2023-05-24T07:48:42;13.60;;;4.00;;
77733;SDS011;66902;41.720;44.796;2023-05-24T07:51:13;32.70;;;6.90;;
77733;SDS011;66902;41.720;44.796;2023-05-24T07:53:43;9.60;;;5.20;;
77733;SDS011;66902;41.720;44.796;2023-05-24T07:56:14;23.30;;;5.70;;
77733;SDS011;66902;41.720;44.796;2023-05-24T07:58:45;28.90;;;6.30;;
77733;SDS011;66902;41.720;44.796;2023-05-24T08:01:17;19.80;;;6.60;;
77733;SDS011;66902;41.720;44.796;2023-05-24T08:03:47;16.30;;;5.80;;
77733;SDS011;66902;41.720;44.796;2023-05-24T08:06:18;20.60;;;6.50;;
77733;SDS011;66902;41.720;44.796;2023-05-24T08:08:48;16.10;;;5.70;;
77733;SDS011;66902;41.720;44.796;2023-05-24T08:11:18;26.40;;;6.20;;
77733;SDS011;66902;41.720;44.796;2023-05-24T08:13:49;26.00;;;6.00;;
77733;SDS011;66902;41.720;44.796;2023-05-24T08:16:19;15.60;;;5.10;;
77733;SDS011;66902;41.720;44.796;2023-05-24T08:18:49;19.80;;;5.70;;
77733;SDS011;66902;41.720;44.796;2023-05-24T08:21:22;15.80;;;5.40;;
77733;SDS011;66902;41.720;44.796;2023-05-24T08:23:53;19.40;;;5.10;;
77733;SDS011;66902;41.720;44.796;2023-05-24T08:26:23;14.90;;;5.40;;
77733;SDS011;66902;41.720;44.796;2023-05-24T08:28:54;20.40;;;5.60;;
77733;SDS011;66902;41.720;44.796;2023-05-24T08:31:24;23.40;;;5.50;;
77733;SDS011;66902;41.720;44.796;2023-05-24T08:33:55;26.70;;;5.70;;
77733;SDS011;66902;41.720;44.796;2023-05-24T08:36:25;24.80;;;6.00;;
77733;SDS011;66902;41.720;44.796;2023-05-24T08:38:56;15.30;;;5.80;;
77733;SDS011;66902;41.720;44.796;2023-05-24T08:41:27;16.70;;;5.40;;
77733;SDS011;66902;41.720;44.796;2023-05-24T08:44:00;30.80;;;6.10;;
77733;SDS011;66902;41.720;44.796;2023-05-24T08:46:30;15.90;;;6.20;;
77733;SDS011;66902;41.720;44.796;2023-05-24T08:49:02;21.10;;;6.60;;
77733;SDS011;66902;41.720;44.796;2023-05-24T08:51:33;30.70;;;5.80;;
77733;SDS011;66902;41.720;44.796;2023-05-24T08:54:06;20.70;;;6.60;;
77733;SDS011;66902;41.720;44.796;2023-05-24T08:56:36;25.70;;;7.10;;
77733;SDS011;66902;41.720;44.796;2023-05-24T08:59:07;30.50;;;7.20;;
77733;SDS011;66902;41.720;44.796;2023-05-24T09:01:40;27.10;;;6.00;;
77733;SDS011;66902;41.720;44.796;2023-05-24T09:04:10;15.40;;;6.20;;
77733;SDS011;66902;41.720;44.796;2023-05-24T09:06:41;30.20;;;6.10;;
77733;SDS011;66902;41.720;44.796;2023-05-24T09:09:13;28.40;;;6.50;;
77733;SDS011;66902;41.720;44.796;2023-05-24T09:11:44;23.60;;;6.30;;
77733;SDS011;66902;41.720;44.796;2023-05-24T09:14:19;31.60;;;7.40;;
77733;SDS011;66902;41.720;44.796;2023-05-24T09:16:50;24.60;;;5.80;;
77733;SDS011;66902;41.720;44.796;2023-05-24T09:19:21;23.80;;;6.50;;
77733;SDS011;66902;41.720;44.796;2023-05-24T09:21:51;27.50;;;6.20;;
77733;SDS011;66902;41.720;44.796;2023-05-24T09:24:22;34.60;;;8.40;;
77733;SDS011;66902;41.720;44.796;2023-05-24T09:26:52;15.40;;;7.10;;
77733;SDS011;66902;41.720;44.796;2023-05-24T09:29:23;25.80;;;7.10;;
77733;SDS011;66902;41.720;44.796;2023-05-24T09:31:53;29.80;;;7.60;;
77733;SDS011;66902;41.720;44.796;2023-05-24T09:34:25;15.00;;;5.80;;
77733;SDS011;66902;41.720;44.796;2023-05-24T09:36:56;18.70;;;5.70;;
77733;SDS011;66902;41.720;44.796;2023-05-24T09:39:29;22.40;;;6.50;;
77733;SDS011;66902;41.720;44.796;2023-05-24T09:42:00;25.50;;;6.70;;
77733;SDS011;66902;41.720;44.796;2023-05-24T09:44:32;22.90;;;6.30;;
77733;SDS011;66902;41.720;44.796;2023-05-24T09:47:03;21.40;;;8.10;;
77733;SDS011;66902;41.720;44.796;2023-05-24T09:49:36;24.60;;;6.80;;
77733;SDS011;66902;41.720;44.796;2023-05-24T09:52:07;21.10;;;5.90;;
77733;SDS011;66902;41.720;44.796;2023-05-24T09:54:38;23.80;;;7.00;;
77733;SDS011;66902;41.720;44.796;2023-05-24T09:57:09;21.70;;;6.70;;
77733;SDS011;66902;41.720;44.796;2023-05-24T09:59:40;25.10;;;7.20;;
77733;SDS011;66902;41.720;44.796;2023-05-24T10:02:11;32.60;;;8.50;;
77733;SDS011;66902;41.720;44.796;2023-05-24T10:04:42;26.30;;;8.50;;
77733;SDS011;66902;41.720;44.796;2023-05-24T10:07:14;27.60;;;7.30;;
77733;SDS011;66902;41.720;44.796;2023-05-24T10:09:45;25.30;;;6.30;;
77733;SDS011;66902;41.720;44.796;2023-05-24T10:12:17;26.00;;;6.50;;
77733;SDS011;66902;41.720;44.796;2023-05-24T10:14:50;35.10;;;7.40;;
77733;SDS011;66902;41.720;44.796;2023-05-24T10:17:24;28.20;;;6.70;;
77733;SDS011;66902;41.720;44.796;2023-05-24T10:19:55;28.60;;;8.50;;
77733;SDS011;66902;41.720;44.796;2023-05-24T10:22:26;33.00;;;6.90;;
77733;SDS011;66902;41.720;44.796;2023-05-24T10:24:57;34.10;;;9.20;;
77733;SDS011;66902;41.720;44.796;2023-05-24T10:27:28;29.00;;;8.60;;
77733;SDS011;66902;41.720;44.796;2023-05-24T10:30:03;32.50;;;7.60;;
77733;SDS011;66902;41.720;44.796;2023-05-24T10:32:42;37.70;;;8.90;;
77733;SDS011;66902;41.720;44.796;2023-05-24T10:35:13;31.90;;;8.00;;
77733;SDS011;66902;41.720;44.796;2023-05-24T10:37:45;28.40;;;7.50;;
77733;SDS011;66902;41.720;44.796;2023-05-24T10:40:17;27.70;;;8.50;;
77733;SDS011;66902;41.720;44.796;2023-05-24T10:42:48;30.40;;;7.30;;
77733;SDS011;66902;41.720;44.796;2023-05-24T10:45:32;25.80;;;7.80;;
77733;SDS011;66902;41.720;44.796;2023-05-24T10:56:54;30.20;;;7.30;;
77733;SDS011;66902;41.720;44.796;2023-05-24T10:59:31;20.20;;;7.30;;
77733;SDS011;66902;41.720;44.796;2023-05-24T11:02:06;27.00;;;6.50;;
77733;SDS011;66902;41.720;44.796;2023-05-24T11:04:41;25.30;;;7.20;;
77733;SDS011;66902;41.720;44.796;2023-05-24T11:07:14;35.70;;;8.70;;
77733;SDS011;66902;41.720;44.796;2023-05-24T11:09:46;44.10;;;9.90;;
77733;SDS011;66902;41.720;44.796;2023-05-24T11:12:23;38.90;;;8.40;;
77733;SDS011;66902;41.720;44.796;2023-05-24T11:15:06;34.70;;;7.70;;
77733;SDS011;66902;41.720;44.796;2023-05-24T11:20:36;36.80;;;9.40;;
77733;SDS011;66902;41.720;44.796;2023-05-24T11:23:08;32.10;;;9.60;;
77733;SDS011;66902;41.720;44.796;2023-05-24T11:25:39;26.10;;;7.50;;
77733;SDS011;66902;41.720;44.796;2023-05-24T11:28:09;32.40;;;8.60;;
77733;SDS011;66902;41.720;44.796;2023-05-24T11:30:40;23.10;;;6.60;;
77733;SDS011;66902;41.720;44.796;2023-05-24T11:33:15;33.70;;;7.20;;
77733;SDS011;66902;41.720;44.796;2023-05-24T11:35:47;28.90;;;9.90;;
77733;SDS011;66902;41.720;44.796;2023-05-24T11:38:19;39.80;;;9.40;;
77733;SDS011;66902;41.720;44.796;2023-05-24T11:40:52;35.90;;;7.60;;
77733;SDS011;66902;41.720;44.796;2023-05-24T11:43:24;30.50;;;8.10;;
77733;SDS011;66902;41.720;44.796;2023-05-24T11:45:54;30.40;;;7.20;;
77733;SDS011;66902;41.720;44.796;2023-05-24T11:48:25;29.40;;;8.00;;
77733;SDS011;66902;41.720;44.796;2023-05-24T11:50:56;37.00;;;8.30;;
77733;SDS011;66902;41.720;44.796;2023-05-24T11:53:27;19.30;;;7.50;;
77733;SDS011;66902;41.720;44.796;2023-05-24T11:55:58;47.30;;;7.90;;
77733;SDS011;66902;41.720;44.796;2023-05-24T11:58:34;27.50;;;7.10;;
77733;SDS011;66902;41.720;44.796;2023-05-24T12:01:23;26.50;;;7.20;;
77733;SDS011;66902;41.720;44.796;2023-05-24T12:03:54;35.70;;;7.30;;
77733;SDS011;66902;41.720;44.796;2023-05-24T12:06:32;37.00;;;9.40;;
77733;SDS011;66902;41.720;44.796;2023-05-24T12:09:04;34.80;;;8.40;;
77733;SDS011;66902;41.720;44.796;2023-05-24T12:11:39;22.60;;;7.60;;
77733;SDS011;66902;41.720;44.796;2023-05-24T12:14:12;21.30;;;7.40;;
77733;SDS011;66902;41.720;44.796;2023-05-24T12:16:43;37.60;;;7.30;;
77733;SDS011;66902;41.720;44.796;2023-05-24T12:19:17;22.80;;;7.00;;
77733;SDS011;66902;41.720;44.796;2023-05-24T12:21:54;31.90;;;8.00;;
77733;SDS011;66902;41.720;44.796;2023-05-24T12:24:25;30.20;;;7.80;;
77733;SDS011;66902;41.720;44.796;2023-05-24T12:26:58;22.10;;;7.50;;
77733;SDS011;66902;41.720;44.796;2023-05-24T12:29:35;23.10;;;7.20;;
77733;SDS011;66902;41.720;44.796;2023-05-24T12:32:08;24.60;;;7.70;;
77733;SDS011;66902;41.720;44.796;2023-05-24T12:34:41;30.60;;;7.80;;
77733;SDS011;66902;41.720;44.796;2023-05-24T12:37:14;32.60;;;9.10;;
77733;SDS011;66902;41.720;44.796;2023-05-24T12:39:46;23.40;;;5.80;;
77733;SDS011;66902;41.720;44.796;2023-05-24T12:42:18;23.20;;;6.70;;
77733;SDS011;66902;41.720;44.796;2023-05-24T12:44:51;22.60;;;7.80;;
77733;SDS011;66902;41.720;44.796;2023-05-24T12:47:21;33.40;;;6.60;;
77733;SDS011;66902;41.720;44.796;2023-05-24T12:49:53;26.50;;;6.90;;
77733;SDS011;66902;41.720;44.796;2023-05-24T12:52:27;25.60;;;9.10;;
77733;SDS011;66902;41.720;44.796;2023-05-24T12:54:58;29.30;;;8.40;;
77733;SDS011;66902;41.720;44.796;2023-05-24T12:57:28;29.80;;;7.40;;
77733;SDS011;66902;41.720;44.796;2023-05-24T13:00:02;27.50;;;6.30;;
77733;SDS011;66902;41.720;44.796;2023-05-24T13:02:34;28.70;;;8.10;;
77733;SDS011;66902;41.720;44.796;2023-05-24T13:05:08;33.90;;;7.40;;
77733;SDS011;66902;41.720;44.796;2023-05-24T13:07:41;21.20;;;6.50;;
77733;SDS011;66902;41.720;44.796;2023-05-24T13:10:12;26.00;;;9.30;;
77733;SDS011;66902;41.720;44.796;2023-05-24T13:12:43;22.10;;;6.90;;
77733;SDS011;66902;41.720;44.796;2023-05-24T13:15:13;26.10;;;7.70;;
77733;SDS011;66902;41.720;44.796;2023-05-24T13:17:44;29.10;;;7.50;;
77733;SDS011;66902;41.720;44.796;2023-05-24T13:20:15;23.80;;;5.60;;
77733;SDS011;66902;41.720;44.796;2023-05-24T13:22:48;32.80;;;8.60;;
77733;SDS011;66902;41.720;44.796;2023-05-24T13:25:19;28.20;;;8.60;;
77733;SDS011;66902;41.720;44.796;2023-05-24T13:27:50;33.50;;;9.40;;
77733;SDS011;66902;41.720;44.796;2023-05-24T13:30:20;35.90;;;8.60;;
77733;SDS011;66902;41.720;44.796;2023-05-24T13:32:54;27.00;;;7.60;;
77733;SDS011;66902;41.720;44.796;2023-05-24T13:35:27;31.90;;;7.90;;
77733;SDS011;66902;41.720;44.796;2023-05-24T13:37:59;33.10;;;8.40;;
77733;SDS011;66902;41.720;44.796;2023-05-24T13:40:32;31.70;;;8.60;;
77733;SDS011;66902;41.720;44.796;2023-05-24T13:43:03;46.40;;;9.10;;
77733;SDS011;66902;41.720;44.796;2023-05-24T13:45:34;30.10;;;8.60;;
77733;SDS011;66902;41.720;44.796;2023-05-24T13:48:04;28.00;;;8.80;;
77733;SDS011;66902;41.720;44.796;2023-05-24T13:50:35;32.00;;;9.30;;
77733;SDS011;66902;41.720;44.796;2023-05-24T13:53:06;24.90;;;6.90;;
77733;SDS011;66902;41.720;44.796;2023-05-24T13:55:36;23.40;;;7.20;;
77733;SDS011;66902;41.720;44.796;2023-05-24T13:58:07;38.50;;;9.10;;
77733;SDS011;66902;41.720;44.796;2023-05-24T14:00:38;27.90;;;8.00;;
77733;SDS011;66902;41.720;44.796;2023-05-24T14:03:10;29.40;;;9.20;;
77733;SDS011;66902;41.720;44.796;2023-05-24T14:05:42;30.10;;;9.00;;
77733;SDS011;66902;41.720;44.796;2023-05-24T14:08:13;20.50;;;10.30;;
77733;SDS011;66902;41.720;44.796;2023-05-24T14:10:43;24.30;;;7.10;;
77733;SDS011;66902;41.720;44.796;2023-05-24T14:13:17;30.30;;;9.20;;
77733;SDS011;66902;41.720;44.796;2023-05-24T14:16:09;18.50;;;8.30;;
77733;SDS011;66902;41.720;44.796;2023-05-24T14:18:40;20.90;;;8.30;;
77733;SDS011;66902;41.720;44.796;2023-05-24T14:21:11;36.40;;;10.10;;
77733;SDS011;66902;41.720;44.796;2023-05-24T14:23:42;21.70;;;8.50;;
77733;SDS011;66902;41.720;44.796;2023-05-24T14:26:12;19.90;;;7.20;;
77733;SDS011;66902;41.720;44.796;2023-05-24T14:28:43;25.80;;;8.20;;
77733;SDS011;66902;41.720;44.796;2023-05-24T14:31:14;32.80;;;8.20;;
77733;SDS011;66902;41.720;44.796;2023-05-24T14:33:45;24.70;;;7.00;;
77733;SDS011;66902;41.720;44.796;2023-05-24T14:36:15;32.80;;;9.10;;
77733;SDS011;66902;41.720;44.796;2023-05-24T14:38:47;20.10;;;8.40;;
77733;SDS011;66902;41.720;44.796;2023-05-24T14:41:18;32.90;;;8.80;;
77733;SDS011;66902;41.720;44.796;2023-05-24T14:43:49;27.20;;;7.60;;
77733;SDS011;66902;41.720;44.796;2023-05-24T14:46:20;37.10;;;9.40;;
77733;SDS011;66902;41.720;44.796;2023-05-24T14:48:51;33.50;;;10.70;;
77733;SDS011;66902;41.720;44.796;2023-05-24T14:51:21;32.00;;;10.30;;
77733;SDS011;66902;41.720;44.796;2023-05-24T14:53:52;37.50;;;10.10;;
77733;SDS011;66902;41.720;44.796;2023-05-24T14:56:22;27.70;;;8.80;;
77733;SDS011;66902;41.720;44.796;2023-05-24T14:58:52;29.30;;;8.60;;
77733;SDS011;66902;41.720;44.796;2023-05-24T15:01:24;29.60;;;9.60;;
77733;SDS011;66902;41.720;44.796;2023-05-24T15:03:55;31.10;;;9.70;;
77733;SDS011;66902;41.720;44.796;2023-05-24T15:06:25;26.90;;;8.40;;
77733;SDS011;66902;41.720;44.796;2023-05-24T15:09:01;23.80;;;10.10;;
77733;SDS011;66902;41.720;44.796;2023-05-24T15:11:32;40.70;;;10.00;;
77733;SDS011;66902;41.720;44.796;2023-05-24T15:14:03;34.90;;;11.40;;
77733;SDS011;66902;41.720;44.796;2023-05-24T15:16:33;34.40;;;9.60;;
77733;SDS011;66902;41.720;44.796;2023-05-24T15:19:04;38.70;;;10.00;;
77733;SDS011;66902;41.720;44.796;2023-05-24T15:21:36;35.10;;;8.90;;
77733;SDS011;66902;41.720;44.796;2023-05-24T15:24:07;31.90;;;10.80;;
77733;SDS011;66902;41.720;44.796;2023-05-24T15:26:42;34.10;;;9.30;;
77733;SDS011;66902;41.720;44.796;2023-05-24T15:29:12;42.10;;;12.10;;
77733;SDS011;66902;41.720;44.796;2023-05-24T15:31:44;31.70;;;9.80;;
77733;SDS011;66902;41.720;44.796;2023-05-24T15:34:15;37.10;;;12.30;;
77733;SDS011;66902;41.720;44.796;2023-05-24T15:36:45;37.90;;;10.60;;
77733;SDS011;66902;41.720;44.796;2023-05-24T15:39:16;46.10;;;11.40;;
77733;SDS011;66902;41.720;44.796;2023-05-24T15:41:47;30.30;;;11.30;;
77733;SDS011;66902;41.720;44.796;2023-05-24T15:44:17;47.00;;;9.50;;
77733;SDS011;66902;41.720;44.796;2023-05-24T15:46:48;26.00;;;9.60;;
77733;SDS011;66902;41.720;44.796;2023-05-24T15:49:19;43.00;;;9.80;;
77733;SDS011;66902;41.720;44.796;2023-05-24T15:51:51;36.20;;;10.10;;
77733;SDS011;66902;41.720;44.796;2023-05-24T15:54:31;43.30;;;10.20;;
77733;SDS011;66902;41.720;44.796;2023-05-24T15:57:02;29.10;;;8.70;;
77733;SDS011;66902;41.720;44.796;2023-05-24T15:59:33;32.60;;;8.10;;
77733;SDS011;66902;41.720;44.796;2023-05-24T16:02:06;30.70;;;10.30;;
77733;SDS011;66902;41.720;44.796;2023-05-24T16:04:37;30.40;;;9.10;;
77733;SDS011;66902;41.720;44.796;2023-05-24T16:07:08;45.20;;;8.80;;
77733;SDS011;66902;41.720;44.796;2023-05-24T16:09:38;27.20;;;8.50;;
77733;SDS011;66902;41.720;44.796;2023-05-24T16:12:09;19.60;;;8.40;;
77733;SDS011;66902;41.720;44.796;2023-05-24T16:14:39;22.90;;;7.10;;
77733;SDS011;66902;41.720;44.796;2023-05-24T16:17:10;29.20;;;9.50;;
77733;SDS011;66902;41.720;44.796;2023-05-24T16:19:42;31.70;;;8.40;;
77733;SDS011;66902;41.720;44.796;2023-05-24T16:22:14;21.60;;;8.00;;
77733;SDS011;66902;41.720;44.796;2023-05-24T16:24:44;31.40;;;8.10;;
77733;SDS011;66902;41.720;44.796;2023-05-24T16:27:15;39.50;;;9.00;;
77733;SDS011;66902;41.720;44.796;2023-05-24T16:29:45;24.40;;;9.20;;
77733;SDS011;66902;41.720;44.796;2023-05-24T16:32:16;24.30;;;7.10;;
77733;SDS011;66902;41.720;44.796;2023-05-24T16:34:47;16.20;;;7.40;;
77733;SDS011;66902;41.720;44.796;2023-05-24T16:37:25;24.80;;;7.30;;
77733;SDS011;66902;41.720;44.796;2023-05-24T16:39:56;25.80;;;8.10;;
77733;SDS011;66902;41.720;44.796;2023-05-24T16:42:27;27.30;;;8.00;;
77733;SDS011;66902;41.720;44.796;2023-05-24T16:44:58;21.70;;;6.80;;
77733;SDS011;66902;41.720;44.796;2023-05-24T16:47:29;34.20;;;9.30;;
77733;SDS011;66902;41.720;44.796;2023-05-24T16:49:59;22.80;;;7.00;;
77733;SDS011;66902;41.720;44.796;2023-05-24T16:52:31;24.50;;;8.50;;
77733;SDS011;66902;41.720;44.796;2023-05-24T16:55:01;23.60;;;6.80;;
77733;SDS011;66902;41.720;44.796;2023-05-24T16:57:34;16.00;;;6.90;;
77733;SDS011;66902;41.720;44.796;2023-05-24T17:00:05;22.60;;;7.40;;
77733;SDS011;66902;41.720;44.796;2023-05-24T17:02:39;30.50;;;8.90;;
77733;SDS011;66902;41.720;44.796;2023-05-24T17:05:12;19.90;;;6.60;;
77733;SDS011;66902;41.720;44.796;2023-05-24T17:07:44;23.10;;;8.70;;
77733;SDS011;66902;41.720;44.796;2023-05-24T17:10:15;29.80;;;10.30;;
77733;SDS011;66902;41.720;44.796;2023-05-24T17:12:46;24.70;;;7.50;;
77733;SDS011;66902;41.720;44.796;2023-05-24T17:15:16;23.40;;;7.10;;
77733;SDS011;66902;41.720;44.796;2023-05-24T17:17:47;15.50;;;7.30;;
77733;SDS011;66902;41.720;44.796;2023-05-24T17:20:18;23.10;;;8.40;;
77733;SDS011;66902;41.720;44.796;2023-05-24T17:22:49;35.80;;;7.60;;
77733;SDS011;66902;41.720;44.796;2023-05-24T17:25:22;31.80;;;8.90;;
77733;SDS011;66902;41.720;44.796;2023-05-24T17:27:53;22.50;;;7.30;;
77733;SDS011;66902;41.720;44.796;2023-05-24T17:30:24;24.20;;;8.70;;
77733;SDS011;66902;41.720;44.796;2023-05-24T17:32:56;19.60;;;7.30;;
77733;SDS011;66902;41.720;44.796;2023-05-24T17:35:26;17.50;;;7.00;;
77733;SDS011;66902;41.720;44.796;2023-05-24T17:37:57;21.30;;;7.20;;
77733;SDS011;66902;41.720;44.796;2023-05-24T17:40:29;15.80;;;6.40;;
77733;SDS011;66902;41.720;44.796;2023-05-24T17:42:59;20.20;;;6.00;;
77733;SDS011;66902;41.720;44.796;2023-05-24T17:45:30;17.50;;;6.80;;
77733;SDS011;66902;41.720;44.796;2023-05-24T17:48:01;22.90;;;7.40;;
77733;SDS011;66902;41.720;44.796;2023-05-24T17:50:32;28.80;;;6.20;;
77733;SDS011;66902;41.720;44.796;2023-05-24T17:53:05;25.30;;;6.80;;
77733;SDS011;66902;41.720;44.796;2023-05-24T17:55:58;26.80;;;7.30;;
77733;SDS011;66902;41.720;44.796;2023-05-24T17:58:29;29.10;;;8.90;;
77733;SDS011;66902;41.720;44.796;2023-05-24T18:01:04;20.90;;;7.10;;
77733;SDS011;66902;41.720;44.796;2023-05-24T18:03:36;21.50;;;7.50;;
77733;SDS011;66902;41.720;44.796;2023-05-24T18:06:08;21.90;;;8.70;;
77733;SDS011;66902;41.720;44.796;2023-05-24T18:08:39;22.10;;;7.50;;
77733;SDS011;66902;41.720;44.796;2023-05-24T18:11:11;28.20;;;8.40;;
77733;SDS011;66902;41.720;44.796;2023-05-24T18:13:43;17.60;;;7.10;;
77733;SDS011;66902;41.720;44.796;2023-05-24T18:16:13;30.70;;;7.00;;
77733;SDS011;66902;41.720;44.796;2023-05-24T18:18:44;18.80;;;8.00;;
77733;SDS011;66902;41.720;44.796;2023-05-24T18:21:15;22.30;;;8.50;;
77733;SDS011;66902;41.720;44.796;2023-05-24T18:23:46;30.70;;;7.10;;
77733;SDS011;66902;41.720;44.796;2023-05-24T18:26:16;24.20;;;8.10;;
77733;SDS011;66902;41.720;44.796;2023-05-24T18:28:47;22.30;;;7.40;;
77733;SDS011;66902;41.720;44.796;2023-05-24T18:31:17;21.30;;;6.90;;
77733;SDS011;66902;41.720;44.796;2023-05-24T18:33:49;18.90;;;7.40;;
77733;SDS011;66902;41.720;44.796;2023-05-24T18:36:20;24.70;;;8.20;;
77733;SDS011;66902;41.720;44.796;2023-05-24T18:38:51;22.30;;;8.30;;
77733;SDS011;66902;41.720;44.796;2023-05-24T18:41:21;25.00;;;7.50;;
77733;SDS011;66902;41.720;44.796;2023-05-24T18:43:51;20.90;;;7.10;;
77733;SDS011;66902;41.720;44.796;2023-05-24T18:46:22;16.30;;;7.00;;
77733;SDS011;66902;41.720;44.796;2023-05-24T18:48:54;23.90;;;8.30;;
77733;SDS011;66902;41.720;44.796;2023-05-24T18:51:27;21.80;;;9.10;;
77733;SDS011;66902;41.720;44.796;2023-05-24T18:53:58;21.30;;;7.80;;
77733;SDS011;66902;41.720;44.796;2023-05-24T18:56:28;17.60;;;8.40;;
77733;SDS011;66902;41.720;44.796;2023-05-24T18:58:59;21.10;;;8.60;;
77733;SDS011;66902;41.720;44.796;2023-05-24T19:01:30;26.80;;;7.20;;
77733;SDS011;66902;41.720;44.796;2023-05-24T19:04:03;22.30;;;7.00;;
77733;SDS011;66902;41.720;44.796;2023-05-24T19:06:36;25.50;;;12.00;;
77733;SDS011;66902;41.720;44.796;2023-05-24T19:09:08;19.40;;;8.10;;
77733;SDS011;66902;41.720;44.796;2023-05-24T19:11:40;22.70;;;8.80;;
77733;SDS011;66902;41.720;44.796;2023-05-24T19:14:15;26.20;;;9.70;;
77733;SDS011;66902;41.720;44.796;2023-05-24T19:16:48;16.70;;;8.20;;
77733;SDS011;66902;41.720;44.796;2023-05-24T19:19:26;17.60;;;7.60;;
77733;SDS011;66902;41.720;44.796;2023-05-24T19:21:57;26.10;;;7.90;;
77733;SDS011;66902;41.720;44.796;2023-05-24T19:24:29;23.90;;;8.00;;
77733;SDS011;66902;41.720;44.796;2023-05-24T19:27:00;27.90;;;11.50;;
77733;SDS011;66902;41.720;44.796;2023-05-24T19:29:33;24.40;;;8.20;;
77733;SDS011;66902;41.720;44.796;2023-05-24T19:32:04;32.50;;;9.00;;
77733;SDS011;66902;41.720;44.796;2023-05-24T19:34:35;30.70;;;10.70;;
77733;SDS011;66902;41.720;44.796;2023-05-24T19:37:09;28.50;;;10.80;;
77733;SDS011;66902;41.720;44.796;2023-05-24T19:39:39;23.90;;;9.30;;
77733;SDS011;66902;41.720;44.796;2023-05-24T19:42:11;22.00;;;8.10;;
77733;SDS011;66902;41.720;44.796;2023-05-24T19:44:41;20.80;;;9.10;;
77733;SDS011;66902;41.720;44.796;2023-05-24T19:47:12;17.60;;;7.90;;
77733;SDS011;66902;41.720;44.796;2023-05-24T19:49:43;18.40;;;7.60;;
77733;SDS011;66902;41.720;44.796;2023-05-24T19:52:13;19.80;;;8.30;;
77733;SDS011;66902;41.720;44.796;2023-05-24T19:54:46;29.00;;;9.10;;
77733;SDS011;66902;41.720;44.796;2023-05-24T19:57:17;21.50;;;8.10;;
77733;SDS011;66902;41.720;44.796;2023-05-24T19:59:48;21.20;;;8.00;;
77733;SDS011;66902;41.720;44.796;2023-05-24T20:02:20;24.70;;;8.80;;
77733;SDS011;66902;41.720;44.796;2023-05-24T20:04:51;24.30;;;8.70;;
77733;SDS011;66902;41.720;44.796;2023-05-24T20:07:22;20.90;;;7.90;;
77733;SDS011;66902;41.720;44.796;2023-05-24T20:09:55;25.10;;;9.90;;
77733;SDS011;66902;41.720;44.796;2023-05-24T20:12:27;20.30;;;9.20;;
77733;SDS011;66902;41.720;44.796;2023-05-24T20:14:58;22.20;;;11.60;;
77733;SDS011;66902;41.720;44.796;2023-05-24T20:17:28;29.90;;;10.40;;
77733;SDS011;66902;41.720;44.796;2023-05-24T20:20:04;42.30;;;10.30;;